Time;durP1;ratioP1;P1;durP2;ratioP2;P2;SDS_P1;SDS_P2;PMS_P1;PMS_P2;Temp;Humidity;BMP_temperature;BMP_pressure;BME280_temperature;BME280_humidity;BME280_pressure;Samples;Min_cycle;Max_cycle;Signal;HPM_P1;HPM_P2
2022/05/30 00:00:29;;;;;;;2.90;0.90;;;;;;;20.26;42.77;101304.78;5053428;28;20029;-59
2022/05/30 00:02:55;;;;;;;3.72;1.00;;;;;;;20.24;42.59;101296.13;5053420;28;20044;-59
2022/05/30 00:05:21;;;;;;;1.90;0.80;;;;;;;20.23;42.42;101297.09;5052946;28;20358;-59
2022/05/30 00:07:47;;;;;;;3.50;0.90;;;;;;;20.23;42.52;101299.72;5053431;28;20051;-59
2022/05/30 00:10:13;;;;;;;3.22;0.80;;;;;;;20.23;42.61;101290.97;5053163;28;20053;-59
2022/05/30 00:12:39;;;;;;;2.08;0.80;;;;;;;20.21;42.52;101301.66;5052659;28;20029;-59
2022/05/30 00:15:09;;;;;;;1.98;0.73;;;;;;;20.21;42.74;101296.38;5052914;28;20531;-60
2022/05/30 00:17:35;;;;;;;1.63;0.80;;;;;;;20.20;42.46;101291.22;5053098;28;20084;-59
2022/05/30 00:20:00;;;;;;;1.38;0.60;;;;;;;20.20;42.43;101296.50;5052236;28;20056;-59
2022/05/30 00:22:25;;;;;;;3.55;0.90;;;;;;;20.19;42.53;101295.69;5053280;28;20063;-59
2022/05/30 00:24:51;;;;;;;4.43;0.80;;;;;;;20.18;42.49;101296.63;5052297;28;20028;-58
2022/05/30 00:27:18;;;;;;;2.75;0.70;;;;;;;20.19;42.28;101292.19;5052922;28;20274;-59
2022/05/30 00:29:46;;;;;;;2.00;0.70;;;;;;;20.15;42.44;101291.59;5052985;28;20173;-57
2022/05/30 00:32:11;;;;;;;2.92;0.88;;;;;;;20.17;42.38;101286.16;5052122;28;20021;-59
2022/05/30 00:34:37;;;;;;;2.80;0.82;;;;;;;20.17;42.34;101294.97;5053011;28;20495;-59
2022/05/30 00:37:05;;;;;;;2.85;0.70;;;;;;;20.14;42.51;101284.63;5052646;28;20111;-58
2022/05/30 00:39:32;;;;;;;2.08;0.90;;;;;;;20.15;42.54;101290.75;5052024;28;20584;-58
2022/05/30 00:42:19;;;;;;;2.45;0.80;;;;;;;20.14;42.33;101284.63;5052346;28;20048;-60
2022/05/30 00:44:46;;;;;;;2.22;0.80;;;;;;;20.13;42.39;101288.25;5053031;28;20041;-60
2022/05/30 00:47:12;;;;;;;3.72;1.00;;;;;;;20.13;42.27;101280.31;5051781;28;20036;-59
2022/05/30 00:49:40;;;;;;;1.67;0.70;;;;;;;20.11;42.34;101279.59;5051891;28;20108;-60
2022/05/30 00:52:08;;;;;;;3.38;0.90;;;;;;;20.11;42.27;101280.44;5052438;28;20021;-59
2022/05/30 00:54:40;;;;;;;2.05;0.98;;;;;;;20.11;42.19;101276.97;5051840;28;20538;-59
2022/05/30 00:57:22;;;;;;;3.67;1.00;;;;;;;20.10;42.27;101278.75;5052593;28;20076;-59
2022/05/30 00:59:59;;;;;;;2.55;0.80;;;;;;;20.09;42.12;101276.22;5052726;28;20025;-60
2022/05/30 01:02:28;;;;;;;2.60;0.75;;;;;;;20.09;42.26;101276.22;5052421;28;20139;-60
2022/05/30 01:07:40;;;;;;;3.75;0.90;;;;;;;20.08;42.26;101274.56;5052077;28;20103;-59
2022/05/30 01:10:07;;;;;;;1.88;0.80;;;;;;;20.07;42.30;101272.88;5052386;28;20029;-58
2022/05/30 01:12:40;;;;;;;3.25;1.15;;;;;;;20.07;42.29;101270.22;5052625;28;20017;-58
2022/05/30 01:15:10;;;;;;;3.47;1.10;;;;;;;20.06;42.15;101274.69;5051411;28;20021;-59
2022/05/30 01:17:46;;;;;;;3.38;0.90;;;;;;;20.06;42.34;101269.41;5052251;28;20065;-59
2022/05/30 01:20:22;;;;;;;2.15;0.80;;;;;;;20.06;42.37;101265.88;5052099;28;20086;-59
2022/05/30 01:23:12;;;;;;;2.97;0.85;;;;;;;20.05;42.30;101272.16;5051821;28;20028;-59
2022/05/30 01:26:09;;;;;;;3.83;1.02;;;;;;;20.04;42.35;101266.00;5052412;28;20033;-59
2022/05/30 01:29:12;;;;;;;2.33;0.80;;;;;;;20.04;42.36;101267.84;5042564;28;20041;-59
2022/05/30 01:31:38;;;;;;;3.08;0.98;;;;;;;20.03;42.35;101266.16;5052476;28;20032;-59
2022/05/30 01:34:06;;;;;;;2.35;0.80;;;;;;;20.02;42.30;101256.53;5051923;28;20115;-59
2022/05/30 01:36:32;;;;;;;3.60;1.20;;;;;;;20.01;42.11;101257.50;5051192;28;20048;-60
2022/05/30 01:38:58;;;;;;;2.42;0.77;;;;;;;20.01;42.36;101258.38;5052048;28;20025;-58
2022/05/30 01:41:23;;;;;;;3.33;0.82;;;;;;;20.01;41.97;101255.72;5052449;28;20385;-59
2022/05/30 01:43:48;;;;;;;2.20;0.90;;;;;;;20.01;42.24;101254.84;5051122;28;20066;-59
2022/05/30 01:46:18;;;;;;;2.63;0.95;;;;;;;20.01;42.30;101255.72;5052254;28;20033;-59
2022/05/30 01:48:45;;;;;;;2.15;0.90;;;;;;;19.98;42.39;101244.53;5052147;28;20025;-60
2022/05/30 01:51:12;;;;;;;3.10;0.85;;;;;;;19.98;42.21;101249.81;5051037;28;20024;-59
2022/05/30 01:53:40;;;;;;;1.75;0.70;;;;;;;19.99;42.39;101254.97;5052313;28;20032;-60
2022/05/30 01:56:06;;;;;;;2.55;0.90;;;;;;;19.97;42.13;101248.16;5051853;28;20500;-58
2022/05/30 01:58:34;;;;;;;3.22;1.00;;;;;;;19.96;42.22;101242.00;5051266;28;20025;-59
2022/05/30 02:01:04;;;;;;;2.05;0.90;;;;;;;19.97;42.08;101245.50;5054160;28;20028;-59
2022/05/30 02:03:30;;;;;;;2.58;0.80;;;;;;;19.96;42.36;101243.81;5054901;28;20115;-58
2022/05/30 02:05:56;;;;;;;2.63;0.70;;;;;;;19.95;42.57;101248.28;5055338;28;20135;-59
2022/05/30 02:08:21;;;;;;;2.90;0.80;;;;;;;19.94;42.31;101244.78;5055620;28;20032;-59
2022/05/30 02:10:48;;;;;;;4.13;1.08;;;;;;;19.94;42.22;101247.41;5054968;28;20029;-59
2022/05/30 02:13:16;;;;;;;2.20;0.70;;;;;;;19.94;42.34;101249.25;5055456;28;20017;-59
2022/05/30 02:18:25;;;;;;;3.33;1.00;;;;;;;19.93;42.40;101243.13;5054830;28;20044;-59
2022/05/30 02:20:50;;;;;;;3.83;1.05;;;;;;;19.92;42.32;101243.25;5055299;28;20381;-59
2022/05/30 02:23:16;;;;;;;4.38;1.00;;;;;;;19.90;42.29;101240.72;5055380;28;20468;-59
2022/05/30 02:25:43;;;;;;;2.95;0.90;;;;;;;19.92;42.31;101243.25;5054618;28;20021;-59
2022/05/30 02:28:11;;;;;;;3.75;0.90;;;;;;;19.91;42.31;101241.56;5055060;28;20039;-59
2022/05/30 02:30:36;;;;;;;2.15;0.75;;;;;;;19.91;42.56;101244.19;5055140;28;20094;-60
2022/05/30 02:38:29;;;;;;;3.08;1.00;;;;;;;19.90;42.34;101237.22;5054538;28;20079;-59
2022/05/30 02:40:55;;;;;;;2.70;0.90;;;;;;;19.89;42.39;101240.84;5054872;28;20033;-59
2022/05/30 02:43:20;;;;;;;3.40;1.10;;;;;;;19.89;42.34;101241.69;5055217;28;20083;-59
2022/05/30 02:45:46;;;;;;;2.80;0.90;;;;;;;19.89;42.44;101230.28;5054144;28;20022;-59
2022/05/30 02:48:12;;;;;;;3.65;0.90;;;;;;;19.88;42.33;101236.50;5054662;28;20278;-59
2022/05/30 02:50:37;;;;;;;4.40;1.15;;;;;;;19.87;42.35;101234.84;5054817;28;20365;-59
2022/05/30 02:53:03;;;;;;;2.90;1.10;;;;;;;19.88;42.10;101237.34;5053778;28;20027;-60
2022/05/30 02:55:37;;;;;;;2.35;0.88;;;;;;;19.87;42.48;101238.34;5054487;28;20106;-59
2022/05/30 02:58:05;;;;;;;2.17;0.90;;;;;;;19.88;42.28;101236.50;5054117;28;20021;-59
2022/05/30 03:00:30;;;;;;;3.75;1.20;;;;;;;19.86;42.59;101231.34;5054146;28;20025;-59
2022/05/30 03:02:56;;;;;;;3.97;1.10;;;;;;;19.86;42.35;101235.81;5054386;28;20380;-59
2022/05/30 03:05:21;;;;;;;2.92;1.00;;;;;;;19.84;42.41;101230.66;5054451;28;20456;-58
2022/05/30 03:07:47;;;;;;;3.88;0.90;;;;;;;19.86;42.36;101241.09;5053655;28;20025;-59
2022/05/30 03:10:12;;;;;;;3.22;1.10;;;;;;;19.84;42.34;101235.94;5054100;28;20029;-59
2022/05/30 03:12:38;;;;;;;2.78;1.08;;;;;;;19.84;42.35;101238.59;5053690;28;20027;-58
2022/05/30 03:15:03;;;;;;;3.38;1.10;;;;;;;19.83;42.19;101239.53;5053318;28;20372;-59
2022/05/30 03:17:29;;;;;;;2.65;0.90;;;;;;;19.82;42.43;101245.81;5054217;28;20041;-60
2022/05/30 03:19:54;;;;;;;3.33;1.00;;;;;;;19.83;42.35;101246.63;5053859;28;20139;-58
2022/05/30 03:22:22;;;;;;;2.67;0.90;;;;;;;19.82;42.30;101239.66;5053468;28;20037;-59
2022/05/30 03:24:48;;;;;;;3.72;1.10;;;;;;;19.82;42.41;101244.94;5054081;28;20017;-59
2022/05/30 03:27:19;;;;;;;2.75;0.95;;;;;;;19.82;42.11;101242.31;5054467;28;20115;-59
2022/05/30 03:29:44;;;;;;;2.42;0.93;;;;;;;19.81;42.33;101248.59;5053082;28;20067;-58
2022/05/30 03:32:10;;;;;;;2.80;1.00;;;;;;;19.79;42.12;101246.06;5053825;28;20060;-58
2022/05/30 03:34:38;;;;;;;4.50;1.33;;;;;;;19.80;42.37;101253.00;5054057;28;20278;-58
2022/05/30 03:37:03;;;;;;;3.78;1.23;;;;;;;19.80;42.31;101249.53;5052889;28;20060;-58
2022/05/30 03:39:29;;;;;;;4.45;1.00;;;;;;;19.79;42.49;101254.00;5053812;28;20072;-59
2022/05/30 03:41:54;;;;;;;2.92;1.10;;;;;;;19.79;42.38;101258.44;5052939;28;20044;-59
2022/05/30 03:44:25;;;;;;;2.37;1.00;;;;;;;19.79;42.24;101263.72;5054083;28;20362;-58
2022/05/30 03:46:51;;;;;;;3.15;0.88;;;;;;;19.78;42.31;101262.06;5053489;28;20546;-58
2022/05/30 03:49:16;;;;;;;2.57;1.00;;;;;;;19.78;42.24;101259.41;5053029;28;20060;-59
2022/05/30 03:51:41;;;;;;;3.03;1.00;;;;;;;19.77;42.34;101268.28;5053656;28;20278;-58
2022/05/30 03:54:06;;;;;;;2.63;1.00;;;;;;;19.76;42.37;101264.81;5053187;28;20389;-59
2022/05/30 03:56:32;;;;;;;2.67;0.85;;;;;;;19.75;42.35;101266.56;5052968;28;20032;-59
2022/05/30 03:59:00;;;;;;;2.88;1.00;;;;;;;19.74;42.29;101264.91;5053394;28;20124;-58
2022/05/30 04:01:25;;;;;;;2.25;1.00;;;;;;;19.73;42.32;101257.94;5053478;28;20024;-58
2022/05/30 04:03:51;;;;;;;3.72;1.10;;;;;;;19.74;42.45;101267.56;5052478;28;20025;-58
2022/05/30 04:06:16;;;;;;;3.10;0.95;;;;;;;19.73;42.28;101260.56;5053316;28;20366;-58
2022/05/30 04:08:41;;;;;;;3.30;1.13;;;;;;;19.73;42.29;101259.75;5053540;28;20496;-59
2022/05/30 04:11:06;;;;;;;3.70;1.17;;;;;;;19.72;42.21;101258.06;5052388;28;20761;-59
2022/05/30 04:13:32;;;;;;;2.88;0.93;;;;;;;19.71;42.40;101251.94;5053439;28;20341;-58
2022/05/30 04:15:57;;;;;;;2.65;0.90;;;;;;;19.72;42.39;101258.88;5052738;28;20088;-58
2022/05/30 04:18:23;;;;;;;2.77;1.00;;;;;;;19.72;42.23;101250.13;5052361;28;20047;-58
2022/05/30 04:20:48;;;;;;;4.75;1.38;;;;;;;19.71;42.18;101246.66;5052983;28;20313;-59
2022/05/30 04:23:14;;;;;;;2.60;1.00;;;;;;;19.72;42.28;101250.13;5052843;28;20070;-57
2022/05/30 04:25:39;;;;;;;3.50;1.20;;;;;;;19.70;42.28;101247.59;5052530;28;20060;-59
2022/05/30 04:28:05;;;;;;;4.60;1.20;;;;;;;19.71;42.33;101256.38;5052730;28;20068;-59
2022/05/30 04:30:30;;;;;;;3.42;1.17;;;;;;;19.70;42.28;101249.41;5053138;28;20071;-58
2022/05/30 04:32:56;;;;;;;3.25;1.10;;;;;;;19.70;42.21;101257.34;5051986;28;20487;-59
2022/05/30 04:35:21;;;;;;;3.92;1.20;;;;;;;19.69;42.25;101251.25;5052914;28;20123;-58
2022/05/30 04:37:47;;;;;;;3.97;1.35;;;;;;;19.70;42.31;101257.34;5052897;28;20028;-59
2022/05/30 04:40:13;;;;;;;4.22;1.20;;;;;;;19.69;42.20;101258.31;5051656;28;20025;-58
2022/05/30 04:42:39;;;;;;;2.90;1.00;;;;;;;19.69;42.21;101260.94;5052666;28;20495;-58
2022/05/30 04:45:06;;;;;;;3.17;1.10;;;;;;;19.68;42.28;101265.41;5051912;28;20099;-58
2022/05/30 04:47:34;;;;;;;3.20;1.10;;;;;;;19.68;42.41;101265.41;5052842;28;20029;-59
2022/05/30 04:49:59;;;;;;;3.30;1.20;;;;;;;19.67;42.21;101268.19;5052238;28;20548;-58
2022/05/30 04:52:25;;;;;;;3.47;1.30;;;;;;;19.66;42.23;101266.50;5051807;28;20152;-58
2022/05/30 04:54:50;;;;;;;4.53;1.20;;;;;;;19.67;42.24;101268.19;5052460;28;20300;-58
2022/05/30 04:57:15;;;;;;;4.38;1.27;;;;;;;19.67;42.63;101270.81;5052611;28;20025;-58
2022/05/30 04:59:41;;;;;;;5.43;1.30;;;;;;;19.67;42.29;101273.47;5051708;28;20069;-59
2022/05/30 05:02:08;;;;;;;3.28;1.10;;;;;;;19.66;42.23;101274.41;5052519;28;20280;-58
2022/05/30 05:04:34;;;;;;;4.03;1.17;;;;;;;19.65;42.27;101273.59;5052573;28;20020;-58
2022/05/30 05:06:59;;;;;;;4.10;1.20;;;;;;;19.67;42.22;101276.13;5051507;28;20473;-58
2022/05/30 05:09:34;;;;;;;2.87;1.20;;;;;;;19.65;42.34;101270.13;5052697;28;20063;-58
2022/05/30 05:11:59;;;;;;;4.78;1.02;;;;;;;19.66;42.38;101271.78;5052425;28;20080;-58
2022/05/30 05:14:24;;;;;;;2.92;1.00;;;;;;;19.66;42.33;101274.41;5051935;28;20024;-58
2022/05/30 05:16:52;;;;;;;4.65;1.20;;;;;;;19.66;42.30;101277.06;5052021;28;20044;-59
2022/05/30 05:19:18;;;;;;;4.03;1.40;;;;;;;19.66;42.19;101271.78;5052405;28;20120;-59
2022/05/30 05:21:45;;;;;;;5.20;1.42;;;;;;;19.66;42.31;101277.06;5051582;28;20104;-59
2022/05/30 05:24:12;;;;;;;3.72;1.20;;;;;;;19.66;42.43;101283.22;5051887;28;20056;-59
2022/05/30 05:26:46;;;;;;;4.28;1.10;;;;;;;19.69;42.40;101275.03;5052477;28;20099;-59
2022/05/30 05:29:11;;;;;;;2.72;1.10;;;;;;;19.73;42.53;101283.56;5051194;28;20499;-59
2022/05/30 05:31:37;;;;;;;2.92;1.17;;;;;;;19.77;42.65;101287.63;5052084;28;20029;-59
2022/05/30 05:34:06;;;;;;;3.35;1.20;;;;;;;19.80;42.70;101281.28;5051909;28;20027;-59
2022/05/30 05:36:36;;;;;;;2.38;0.98;;;;;;;19.82;42.61;101282.84;5054695;28;20485;-60
2022/05/30 05:39:01;;;;;;;1.70;0.80;;;;;;;19.84;42.77;101282.72;5055621;28;20552;-59
2022/05/30 05:41:26;;;;;;;3.92;1.00;;;;;;;19.86;42.65;101286.91;5055368;28;20111;-59
2022/05/30 05:43:55;;;;;;;2.35;0.90;;;;;;;19.88;42.80;101290.25;5055723;28;20021;-59
2022/05/30 05:46:27;;;;;;;2.80;0.90;;;;;;;19.90;42.77;101290.13;5056052;28;20021;-59
2022/05/30 05:48:53;;;;;;;3.38;1.00;;;;;;;19.91;42.92;101291.81;5054984;28;20055;-59
2022/05/30 05:51:19;;;;;;;3.65;1.13;;;;;;;19.93;42.98;101295.16;5055978;28;20028;-59
2022/05/30 05:53:45;;;;;;;3.75;1.10;;;;;;;19.92;42.64;101293.50;5055976;28;20032;-59
2022/05/30 05:56:17;;;;;;;2.92;0.95;;;;;;;19.94;42.92;101291.56;5054726;28;20385;-59
2022/05/30 05:59:03;;;;;;;3.33;1.10;;;;;;;19.95;42.42;101293.25;5055650;28;20037;-59
2022/05/30 06:01:31;;;;;;;3.22;1.10;;;;;;;19.97;42.77;101293.97;5055929;28;20026;-58
2022/05/30 06:04:00;;;;;;;3.53;1.20;;;;;;;19.98;42.80;101300.94;5054765;28;20025;-59
2022/05/30 06:06:26;;;;;;;3.22;1.20;;;;;;;19.98;42.86;101300.94;5055712;28;20021;-59
2022/05/30 06:08:56;;;;;;;3.40;1.00;;;;;;;20.01;42.81;101298.03;5055305;28;20028;-58
2022/05/30 06:11:23;;;;;;;3.00;1.00;;;;;;;19.99;42.94;101299.13;5054797;28;20033;-57
2022/05/30 06:13:49;;;;;;;2.63;1.00;;;;;;;20.01;43.04;101298.03;5055097;28;20535;-57
2022/05/30 06:16:30;;;;;;;3.72;1.00;;;;;;;20.02;42.93;101293.59;5055176;28;20053;-59
2022/05/30 06:19:01;;;;;;;2.85;0.90;;;;;;;20.04;43.10;101304.88;5054954;28;20064;-58
2022/05/30 06:21:28;;;;;;;2.67;0.90;;;;;;;20.05;43.20;101306.56;5055431;28;20047;-58
2022/05/30 06:23:54;;;;;;;2.75;1.00;;;;;;;20.06;43.45;101301.16;5054373;28;20032;-59
2022/05/30 06:26:20;;;;;;;4.05;1.00;;;;;;;20.07;43.41;101296.69;5055347;28;20021;-59
2022/05/30 06:28:46;;;;;;;2.72;0.90;;;;;;;20.09;43.29;101303.53;5055485;28;20074;-59
2022/05/30 06:31:20;;;;;;;3.47;1.08;;;;;;;20.10;43.31;101299.06;5054280;28;20020;-58
2022/05/30 06:33:45;;;;;;;3.47;1.10;;;;;;;20.11;43.53;101303.41;5055360;28;20066;-58
2022/05/30 06:36:13;;;;;;;3.22;1.00;;;;;;;20.12;43.45;101294.50;5054913;28;20021;-58
2022/05/30 06:38:39;;;;;;;3.40;0.85;;;;;;;20.14;43.49;101304.94;5054425;28;20021;-59
2022/05/30 06:41:15;;;;;;;3.35;1.05;;;;;;;20.14;42.93;101302.31;5054966;28;20025;-59
2022/05/30 06:43:40;;;;;;;3.38;0.90;;;;;;;20.15;43.17;101298.69;5055020;28;20017;-61
2022/05/30 06:46:06;;;;;;;3.92;0.90;;;;;;;20.18;43.53;101306.38;5054522;28;20028;-60
2022/05/30 06:48:32;;;;;;;3.72;1.15;;;;;;;20.24;43.38;101306.72;5056571;28;20029;-59
2022/05/30 06:51:00;;;;;;;4.15;0.98;;;;;;;20.33;43.06;101305.13;5067345;28;20023;-60
2022/05/30 06:53:25;;;;;;;3.60;1.08;;;;;;;20.42;42.46;101304.31;5054512;28;20032;-58
2022/05/30 06:55:51;;;;;;;3.10;0.90;;;;;;;20.50;42.68;101311.63;5055022;28;20020;-61
2022/05/30 06:58:17;;;;;;;2.95;0.90;;;;;;;20.55;42.37;101314.72;5054753;28;20029;-61
2022/05/30 07:00:46;;;;;;;3.28;1.00;;;;;;;20.59;42.45;101310.84;5054061;28;20029;-59
2022/05/30 07:03:14;;;;;;;4.80;1.27;;;;;;;20.67;43.73;101314.72;5054375;28;20083;-59
2022/05/30 07:05:42;;;;;;;6.25;1.58;;;;;;;20.74;44.40;101307.91;5054561;28;20059;-60
2022/05/30 07:08:12;;;;;;;7.53;1.42;;;;;;;20.80;44.63;101310.88;5053838;28;20031;-57
2022/05/30 07:10:42;;;;;;;4.00;1.38;;;;;;;20.87;44.27;101315.66;5056500;28;20483;-61
2022/05/30 07:13:08;;;;;;;4.55;1.60;;;;;;;20.90;44.52;101313.56;5055352;28;20114;-60
2022/05/30 07:15:36;;;;;;;3.40;1.40;;;;;;;20.97;44.49;101319.19;5057115;28;20439;-61
2022/05/30 07:18:11;;;;;;;4.60;1.38;;;;;;;21.02;44.17;101309.03;5057912;28;20028;-60
2022/05/30 07:20:36;;;;;;;4.90;1.38;;;;;;;21.06;43.86;101315.75;5054564;28;20036;-60
2022/05/30 07:23:02;;;;;;;4.65;1.30;;;;;;;21.09;43.62;101312.00;5054665;28;20021;-60
2022/05/30 07:25:30;;;;;;;4.90;1.23;;;;;;;21.11;43.41;101310.91;5054921;28;20029;-63
2022/05/30 07:27:55;;;;;;;3.88;1.08;;;;;;;21.13;43.10;101314.25;5053343;28;20017;-60
2022/05/30 07:30:21;;;;;;;4.73;1.30;;;;;;;21.14;43.03;101315.06;5054166;28;20492;-60
2022/05/30 07:32:46;;;;;;;3.63;1.13;;;;;;;21.14;43.02;101315.94;5055176;28;20460;-60
2022/05/30 07:35:11;;;;;;;3.85;1.40;;;;;;;21.15;43.15;101314.94;5053491;28;20301;-60
2022/05/30 07:37:36;;;;;;;6.70;1.20;;;;;;;21.16;42.61;101318.44;5056452;28;20037;-60
2022/05/30 07:40:04;;;;;;;3.97;1.10;;;;;;;21.15;42.84;101317.59;5053754;28;20074;-59
2022/05/30 07:42:29;;;;;;;4.30;1.10;;;;;;;21.12;42.80;101322.31;5053172;28;20071;-59
2022/05/30 07:44:55;;;;;;;4.85;1.48;;;;;;;21.08;42.93;101320.91;5053372;28;20026;-59
2022/05/30 07:47:22;;;;;;;7.50;1.30;;;;;;;21.08;42.87;101315.59;5053908;28;20531;-60
2022/05/30 07:49:48;;;;;;;6.05;1.33;;;;;;;21.10;42.51;101311.84;5053255;28;20685;-59
2022/05/30 07:52:14;;;;;;;5.18;1.20;;;;;;;21.08;42.36;101308.50;5053676;28;20044;-59
2022/05/30 07:54:39;;;;;;;5.20;1.27;;;;;;;21.05;42.80;101311.44;5053792;28;20029;-59
2022/05/30 07:57:06;;;;;;;4.40;1.30;;;;;;;21.05;42.61;101311.44;5052697;28;20397;-59
2022/05/30 07:59:32;;;;;;;7.63;1.42;;;;;;;21.08;42.10;101312.94;5052980;28;20075;-59
2022/05/30 08:01:58;;;;;;;6.30;1.30;;;;;;;21.09;41.75;101306.69;5054015;28;20021;-59
2022/05/30 08:04:23;;;;;;;3.20;0.95;;;;;;;21.09;42.14;101310.16;5053382;28;20465;-59
2022/05/30 08:06:52;;;;;;;4.50;1.10;;;;;;;21.09;42.16;101304.03;5053330;28;20033;-60
2022/05/30 08:09:18;;;;;;;4.45;1.20;;;;;;;21.04;41.97;101311.56;5052721;28;20266;-59
2022/05/30 08:11:43;;;;;;;6.40;1.20;;;;;;;21.05;42.44;101313.25;5053478;28;20381;-60
2022/05/30 08:14:10;;;;;;;4.65;1.00;;;;;;;21.04;42.57;101309.72;5052937;28;20021;-61
2022/05/30 08:16:37;;;;;;;3.70;1.02;;;;;;;21.08;42.22;101315.59;5052565;28;20566;-59
2022/05/30 08:19:07;;;;;;;5.50;1.00;;;;;;;21.11;42.19;101310.03;5053880;28;20028;-59
2022/05/30 08:21:33;;;;;;;3.97;0.95;;;;;;;21.13;41.58;101313.41;5053446;28;20071;-60
2022/05/30 08:23:58;;;;;;;6.45;1.10;;;;;;;21.15;40.86;101316.75;5052253;28;20469;-60
2022/05/30 08:26:23;;;;;;;5.03;1.17;;;;;;;21.15;41.03;101311.47;5053388;28;20219;-60
2022/05/30 08:28:48;;;;;;;3.13;0.90;;;;;;;21.13;41.40;101311.59;5052819;28;20056;-59
2022/05/30 08:31:15;;;;;;;6.63;1.33;;;;;;;21.10;41.74;101311.84;5052468;28;20603;-59
2022/05/30 08:33:41;;;;;;;5.65;1.10;;;;;;;21.09;41.87;101312.81;5053191;28;20044;-59
2022/05/30 08:36:09;;;;;;;3.70;1.00;;;;;;;21.12;41.75;101322.31;5053613;28;20037;-59
2022/05/30 08:38:37;;;;;;;4.00;0.93;;;;;;;21.13;41.54;101314.25;5052249;28;20079;-58
2022/05/30 08:43:50;;;;;;;3.10;1.20;;;;;;;21.10;40.99;101319.81;5052651;28;20031;-59
2022/05/30 08:46:50;;;;;;;3.15;0.93;;;;;;;21.06;40.97;101329.00;5052334;28;20025;-58
2022/05/30 08:49:22;;;;;;;3.22;0.98;;;;;;;21.03;41.11;101323.97;5053583;28;20079;-59
2022/05/30 08:52:06;;;;;;;5.22;1.00;;;;;;;21.04;40.99;101322.97;5052907;28;20056;-60
2022/05/30 08:55:05;;;;;;;4.28;0.90;;;;;;;21.05;40.95;101326.50;5054143;28;20056;-59
2022/05/30 08:57:33;;;;;;;3.72;1.10;;;;;;;21.06;40.48;101322.84;5054433;28;20124;-59
2022/05/30 09:00:24;;;;;;;2.58;0.80;;;;;;;21.07;40.71;101330.66;5052197;28;20029;-60
2022/05/30 09:02:59;;;;;;;2.83;0.68;;;;;;;21.07;40.35;101328.03;5052795;28;20035;-59
2022/05/30 09:05:33;;;;;;;4.78;0.80;;;;;;;21.07;40.67;101327.19;5052218;28;20072;-60
2022/05/30 09:08:01;;;;;;;;;;;;;;;21.06;40.23;101322.84;5052956;28;20025;-60
2022/05/30 09:10:39;;;;;;;3.72;1.00;;;;;;;21.07;40.23;101324.53;5054517;28;19912;-59
2022/05/30 09:13:15;;;;;;;3.28;0.90;;;;;;;21.06;40.43;101331.66;5056035;28;20025;-59
2022/05/30 09:15:52;;;;;;;3.28;0.93;;;;;;;21.06;39.96;101333.44;5056789;28;20021;-60
2022/05/30 09:18:23;;;;;;;4.28;1.00;;;;;;;21.07;40.27;101329.84;5056647;28;20029;-62
2022/05/30 09:20:49;;;;;;;3.40;1.00;;;;;;;21.08;40.20;101324.41;5055671;28;20158;-60
2022/05/30 09:23:20;;;;;;;2.60;0.90;;;;;;;21.12;40.86;101325.81;5057150;28;20021;-62
2022/05/30 09:26:07;;;;;;;3.85;1.15;;;;;;;21.15;40.19;101319.41;5056977;28;20032;-62
2022/05/30 09:28:39;;;;;;;4.65;0.90;;;;;;;21.15;39.65;101314.94;5055805;28;20037;-61
2022/05/30 09:31:28;;;;;;;4.45;1.73;;;;;;;21.15;40.37;101314.94;5056487;28;20380;-59
2022/05/30 09:33:59;;;;;;;4.15;1.05;;;;;;;21.16;40.25;101319.28;5056941;28;20037;-61
2022/05/30 09:36:30;;;;;;;3.58;0.80;;;;;;;21.17;40.48;101323.63;5056793;28;20017;-60
2022/05/30 09:39:14;;;;;;;3.03;0.90;;;;;;;21.19;39.67;101321.66;5056160;28;20021;-59
2022/05/30 09:41:40;;;;;;;2.55;0.90;;;;;;;21.20;40.41;101323.34;5055448;28;20487;-59
2022/05/30 09:44:17;;;;;;;3.75;1.00;;;;;;;21.22;40.08;101325.00;5056714;28;20107;-59
2022/05/30 09:46:56;;;;;;;3.30;0.80;;;;;;;21.21;39.92;101326.84;5057233;28;20486;-61
2022/05/30 09:49:49;;;;;;;7.55;1.08;;;;;;;21.22;40.01;101325.88;5055739;28;20017;-59
2022/05/30 09:52:26;;;;;;;2.90;0.80;;;;;;;21.24;39.75;101325.72;5057086;28;20029;-59
2022/05/30 09:54:55;;;;;;;3.22;0.90;;;;;;;21.24;39.99;101323.91;5057660;28;20086;-58
2022/05/30 09:57:42;;;;;;;3.40;1.05;;;;;;;21.26;40.03;101329.91;5056678;28;20377;-58
2022/05/30 10:00:33;;;;;;;2.05;0.93;;;;;;;21.25;39.97;101328.22;5055883;28;20128;-60
2022/05/30 10:03:25;;;;;;;2.95;0.70;;;;;;;21.24;40.08;101325.72;5052628;28;20033;-58
2022/05/30 10:05:50;;;;;;;2.60;0.70;;;;;;;21.25;39.72;101328.22;5055878;28;20021;-59
2022/05/30 10:08:27;;;;;;;1.80;0.65;;;;;;;21.26;39.97;101321.13;5056657;28;20025;-59
2022/05/30 10:10:56;;;;;;;2.35;0.80;;;;;;;21.27;39.92;101323.66;5055799;28;20025;-58
2022/05/30 10:13:36;;;;;;;3.88;0.88;;;;;;;21.27;39.84;101320.16;5056636;28;20151;-59
2022/05/30 10:16:12;;;;;;;4.82;1.33;;;;;;;21.16;40.03;101311.31;5054651;28;20102;-59
2022/05/30 10:18:55;;;;;;;3.67;0.93;;;;;;;21.22;40.19;101328.53;5055612;28;20104;-60
2022/05/30 10:28:17;;;;;;;4.25;0.80;;;;;;;21.24;40.47;101326.56;5056020;28;20036;-60
2022/05/30 10:31:10;;;;;;;7.97;1.17;;;;;;;21.24;40.27;101317.75;5054804;28;20114;-58
2022/05/30 10:34:19;;;;;;;4.88;1.17;;;;;;;21.25;40.39;101319.44;5055096;28;20469;-59
2022/05/30 10:37:09;;;;;;;2.80;0.70;;;;;;;21.26;40.50;101324.63;5055027;28;20063;-59
2022/05/30 10:39:43;;;;;;;3.22;0.90;;;;;;;21.25;40.71;101322.94;5055061;28;20048;-59
2022/05/30 10:42:32;;;;;;;;;;;;;;;21.25;40.73;101322.94;5055129;28;20536;-58
2022/05/30 10:45:02;;;;;;;4.10;0.90;;;;;;;21.25;40.95;101330.06;5053443;28;19913;-58
2022/05/30 10:47:38;;;;;;;3.10;0.77;;;;;;;21.22;40.59;101328.53;5055199;28;20025;-57
2022/05/30 10:50:12;;;;;;;3.20;0.70;;;;;;;21.18;39.13;101333.22;5054742;28;20087;-58
2022/05/30 10:53:03;;;;;;;3.45;0.90;;;;;;;21.15;40.31;101332.66;5054139;28;20032;-58
2022/05/30 10:55:37;;;;;;;6.10;0.80;;;;;;;21.14;40.94;101330.97;5054929;28;20384;-58
2022/05/30 10:58:16;;;;;;;5.00;0.82;;;;;;;21.14;40.86;101331.84;5053872;28;20441;-59
2022/05/30 11:00:48;;;;;;;4.72;1.00;;;;;;;21.11;41.18;101326.78;5054700;28;20443;-59
2022/05/30 11:03:40;;;;;;;3.00;0.90;;;;;;;21.10;41.26;101330.41;5054956;28;20086;-59
2022/05/30 11:06:31;;;;;;;3.33;0.73;;;;;;;21.10;41.07;101324.28;5053744;28;20029;-59
2022/05/30 11:09:12;;;;;;;3.72;0.80;;;;;;;21.09;41.16;101333.19;5054142;28;20467;-60
2022/05/30 11:11:46;;;;;;;3.85;1.00;;;;;;;21.08;41.45;101327.06;5055876;28;20139;-59
2022/05/30 11:14:24;;;;;;;2.85;0.80;;;;;;;21.08;41.10;101331.50;5054853;28;20117;-59
2022/05/30 11:17:05;;;;;;;3.17;0.80;;;;;;;21.10;40.66;101337.53;5055602;28;20045;-59
2022/05/30 11:19:42;;;;;;;3.42;1.00;;;;;;;21.15;40.70;101332.66;5054258;28;20040;-59
2022/05/30 11:22:38;;;;;;;3.00;0.73;;;;;;;21.22;40.35;101335.63;5054555;28;20025;-59
2022/05/30 11:25:07;;;;;;;4.13;1.00;;;;;;;21.25;40.66;101322.09;5055596;28;20025;-60
2022/05/30 11:27:40;;;;;;;3.20;0.93;;;;;;;21.28;39.90;101335.09;5054133;28;20017;-59
2022/05/30 11:30:10;;;;;;;3.75;0.90;;;;;;;21.29;39.89;101334.94;5054221;28;20055;-58
2022/05/30 11:32:54;;;;;;;4.88;0.90;;;;;;;21.32;39.85;101340.00;5054121;28;20377;-58
2022/05/30 11:35:37;;;;;;;4.03;0.90;;;;;;;21.32;40.12;101333.84;5053676;28;20021;-59
2022/05/30 11:38:21;;;;;;;2.97;0.75;;;;;;;21.31;39.86;101340.94;5053689;28;20029;-59
2022/05/30 11:41:05;;;;;;;3.85;1.42;;;;;;;21.30;39.89;101341.94;5053520;28;20036;-57
2022/05/30 11:43:36;;;;;;;3.60;0.90;;;;;;;21.28;39.89;101343.88;5054996;28;20033;-59
2022/05/30 11:46:19;;;;;;;3.35;1.00;;;;;;;21.27;40.03;101342.22;5053819;28;20511;-59
2022/05/30 11:48:56;;;;;;;3.28;0.73;;;;;;;21.23;39.76;101340.78;5053252;28;20079;-58
2022/05/30 11:51:43;;;;;;;4.15;1.13;;;;;;;21.19;40.08;101345.53;5053895;28;20421;-58
2022/05/30 11:54:29;;;;;;;3.00;0.85;;;;;;;21.17;40.19;101342.16;5053039;28;20025;-59
2022/05/30 11:56:57;;;;;;;5.75;1.20;;;;;;;21.15;40.10;101333.50;5053659;28;20111;-59
2022/05/30 11:59:34;;;;;;;3.28;0.88;;;;;;;21.15;40.06;101338.78;5053776;28;20040;-59
2022/05/30 12:02:03;;;;;;;3.30;0.93;;;;;;;21.15;40.21;101335.31;5053095;28;20362;-60